sensor_id;sensor_type;location;lat;lon;timestamp;temperature;humidity
49765;DHT22;35657;51.204;-4.130;2023-05-24T00:01:34;13.90;99.90
49765;DHT22;35657;51.204;-4.130;2023-05-24T00:04:02;13.80;99.90
49765;DHT22;35657;51.204;-4.130;2023-05-24T00:06:28;13.80;99.90
49765;DHT22;35657;51.204;-4.130;2023-05-24T00:08:54;13.80;99.90
49765;DHT22;35657;51.204;-4.130;2023-05-24T00:11:20;13.80;99.90
49765;DHT22;35657;51.204;-4.130;2023-05-24T00:13:49;13.90;99.90
49765;DHT22;35657;51.204;-4.130;2023-05-24T00:16:15;13.90;99.90
49765;DHT22;35657;51.204;-4.130;2023-05-24T00:18:40;14.00;99.90
49765;DHT22;35657;51.204;-4.130;2023-05-24T00:21:12;14.00;99.90
49765;DHT22;35657;51.204;-4.130;2023-05-24T00:23:38;14.00;99.90
49765;DHT22;35657;51.204;-4.130;2023-05-24T00:26:04;14.00;99.90
49765;DHT22;35657;51.204;-4.130;2023-05-24T00:28:30;14.20;99.90
49765;DHT22;35657;51.204;-4.130;2023-05-24T00:30:57;14.30;99.90
49765;DHT22;35657;51.204;-4.130;2023-05-24T00:33:23;14.40;99.90
49765;DHT22;35657;51.204;-4.130;2023-05-24T00:35:49;14.30;99.90
49765;DHT22;35657;51.204;-4.130;2023-05-24T00:38:23;14.20;99.90
49765;DHT22;35657;51.204;-4.130;2023-05-24T00:40:50;14.20;99.90
49765;DHT22;35657;51.204;-4.130;2023-05-24T00:43:15;14.20;99.90
49765;DHT22;35657;51.204;-4.130;2023-05-24T00:45:42;14.20;99.90
49765;DHT22;35657;51.204;-4.130;2023-05-24T00:48:08;14.20;99.90
49765;DHT22;35657;51.204;-4.130;2023-05-24T00:50:34;14.30;99.90
49765;DHT22;35657;51.204;-4.130;2023-05-24T00:53:02;14.20;99.90
49765;DHT22;35657;51.204;-4.130;2023-05-24T00:55:29;14.00;99.90
49765;DHT22;35657;51.204;-4.130;2023-05-24T00:57:58;13.90;99.90
49765;DHT22;35657;51.204;-4.130;2023-05-24T01:00:25;13.90;99.90
49765;DHT22;35657;51.204;-4.130;2023-05-24T01:02:50;13.90;99.90
49765;DHT22;35657;51.204;-4.130;2023-05-24T01:05:17;13.80;99.90
49765;DHT22;35657;51.204;-4.130;2023-05-24T01:10:31;13.70;99.90
49765;DHT22;35657;51.204;-4.130;2023-05-24T01:13:17;13.50;99.90
49765;DHT22;35657;51.204;-4.130;2023-05-24T01:15:53;13.50;99.90
49765;DHT22;35657;51.204;-4.130;2023-05-24T01:18:28;13.50;99.90
49765;DHT22;35657;51.204;-4.130;2023-05-24T01:24:25;13.60;99.90
49765;DHT22;35657;51.204;-4.130;2023-05-24T01:27:06;13.50;99.90
49765;DHT22;35657;51.204;-4.130;2023-05-24T01:29:34;13.50;99.90
49765;DHT22;35657;51.204;-4.130;2023-05-24T01:32:00;13.40;99.90
49765;DHT22;35657;51.204;-4.130;2023-05-24T01:34:26;13.40;99.90
49765;DHT22;35657;51.204;-4.130;2023-05-24T01:36:52;13.40;99.90
49765;DHT22;35657;51.204;-4.130;2023-05-24T01:39:19;13.40;99.90
49765;DHT22;35657;51.204;-4.130;2023-05-24T01:42:28;13.40;99.90
49765;DHT22;35657;51.204;-4.130;2023-05-24T01:50:31;13.30;99.90
49765;DHT22;35657;51.204;-4.130;2023-05-24T01:53:04;13.20;99.90
49765;DHT22;35657;51.204;-4.130;2023-05-24T01:55:32;13.20;99.90
49765;DHT22;35657;51.204;-4.130;2023-05-24T01:58:01;13.20;99.90
49765;DHT22;35657;51.204;-4.130;2023-05-24T02:00:28;13.20;99.90
49765;DHT22;35657;51.204;-4.130;2023-05-24T02:02:55;13.10;99.90
49765;DHT22;35657;51.204;-4.130;2023-05-24T02:05:21;13.30;99.90
49765;DHT22;35657;51.204;-4.130;2023-05-24T02:07:47;13.30;99.90
49765;DHT22;35657;51.204;-4.130;2023-05-24T02:10:13;13.40;99.90
49765;DHT22;35657;51.204;-4.130;2023-05-24T02:12:38;13.40;99.90
49765;DHT22;35657;51.204;-4.130;2023-05-24T02:15:05;13.40;99.90
49765;DHT22;35657;51.204;-4.130;2023-05-24T02:17:31;13.40;99.90
49765;DHT22;35657;51.204;-4.130;2023-05-24T02:20:00;13.40;99.90
49765;DHT22;35657;51.204;-4.130;2023-05-24T02:22:26;13.40;99.90
49765;DHT22;35657;51.204;-4.130;2023-05-24T02:24:53;13.40;99.90
49765;DHT22;35657;51.204;-4.130;2023-05-24T02:27:19;13.40;99.90
49765;DHT22;35657;51.204;-4.130;2023-05-24T02:29:45;13.50;99.90
49765;DHT22;35657;51.204;-4.130;2023-05-24T02:32:12;13.60;99.90
49765;DHT22;35657;51.204;-4.130;2023-05-24T02:34:37;13.50;99.90
49765;DHT22;35657;51.204;-4.130;2023-05-24T02:37:03;13.50;99.90
49765;DHT22;35657;51.204;-4.130;2023-05-24T02:39:29;13.50;99.90
49765;DHT22;35657;51.204;-4.130;2023-05-24T02:41:55;13.50;99.90
49765;DHT22;35657;51.204;-4.130;2023-05-24T02:44:21;13.50;99.90
49765;DHT22;35657;51.204;-4.130;2023-05-24T02:46:46;13.30;99.90
49765;DHT22;35657;51.204;-4.130;2023-05-24T02:49:12;13.20;99.90
49765;DHT22;35657;51.204;-4.130;2023-05-24T02:51:38;13.20;99.90
49765;DHT22;35657;51.204;-4.130;2023-05-24T02:54:03;13.10;99.90
49765;DHT22;35657;51.204;-4.130;2023-05-24T02:56:29;13.00;99.90
49765;DHT22;35657;51.204;-4.130;2023-05-24T02:58:55;12.90;99.90
49765;DHT22;35657;51.204;-4.130;2023-05-24T03:01:21;12.90;99.90
49765;DHT22;35657;51.204;-4.130;2023-05-24T03:03:47;12.90;99.90
49765;DHT22;35657;51.204;-4.130;2023-05-24T03:06:13;12.90;99.90
49765;DHT22;35657;51.204;-4.130;2023-05-24T03:08:40;12.90;99.90
49765;DHT22;35657;51.204;-4.130;2023-05-24T03:11:06;12.80;99.90
49765;DHT22;35657;51.204;-4.130;2023-05-24T03:13:31;12.80;99.90
49765;DHT22;35657;51.204;-4.130;2023-05-24T03:15:57;12.80;99.90
49765;DHT22;35657;51.204;-4.130;2023-05-24T03:18:23;12.80;99.90
49765;DHT22;35657;51.204;-4.130;2023-05-24T03:20:49;12.70;99.90
49765;DHT22;35657;51.204;-4.130;2023-05-24T03:23:15;12.60;99.90
49765;DHT22;35657;51.204;-4.130;2023-05-24T03:25:41;12.60;99.90
49765;DHT22;35657;51.204;-4.130;2023-05-24T03:28:06;12.60;99.90
49765;DHT22;35657;51.204;-4.130;2023-05-24T03:30:32;12.50;99.90
49765;DHT22;35657;51.204;-4.130;2023-05-24T03:32:58;12.50;99.90
49765;DHT22;35657;51.204;-4.130;2023-05-24T03:35:24;12.50;99.90
49765;DHT22;35657;51.204;-4.130;2023-05-24T03:37:50;12.60;99.90
49765;DHT22;35657;51.204;-4.130;2023-05-24T03:40:16;12.70;99.90
49765;DHT22;35657;51.204;-4.130;2023-05-24T03:42:41;12.70;99.90
49765;DHT22;35657;51.204;-4.130;2023-05-24T03:45:07;12.70;99.90
49765;DHT22;35657;51.204;-4.130;2023-05-24T03:47:33;12.70;99.90
49765;DHT22;35657;51.204;-4.130;2023-05-24T03:49:59;12.70;99.90
49765;DHT22;35657;51.204;-4.130;2023-05-24T03:52:25;12.80;99.90
49765;DHT22;35657;51.204;-4.130;2023-05-24T03:54:50;12.80;99.90
49765;DHT22;35657;51.204;-4.130;2023-05-24T03:57:17;12.80;99.90
49765;DHT22;35657;51.204;-4.130;2023-05-24T03:59:42;12.90;99.90
49765;DHT22;35657;51.204;-4.130;2023-05-24T04:02:08;12.80;99.90
49765;DHT22;35657;51.204;-4.130;2023-05-24T04:04:34;12.80;99.90
49765;DHT22;35657;51.204;-4.130;2023-05-24T04:07:01;12.80;99.90
49765;DHT22;35657;51.204;-4.130;2023-05-24T04:09:27;12.90;99.90
49765;DHT22;35657;51.204;-4.130;2023-05-24T04:11:53;12.80;99.90
49765;DHT22;35657;51.204;-4.130;2023-05-24T04:14:18;13.00;99.90
49765;DHT22;35657;51.204;-4.130;2023-05-24T04:16:44;13.00;99.90
49765;DHT22;35657;51.204;-4.130;2023-05-24T04:19:11;12.80;99.90
49765;DHT22;35657;51.204;-4.130;2023-05-24T04:21:37;12.90;99.90
49765;DHT22;35657;51.204;-4.130;2023-05-24T04:24:03;12.90;99.90
49765;DHT22;35657;51.204;-4.130;2023-05-24T04:26:30;12.90;99.90
49765;DHT22;35657;51.204;-4.130;2023-05-24T04:28:58;13.00;99.90
49765;DHT22;35657;51.204;-4.130;2023-05-24T04:31:24;12.90;99.90
49765;DHT22;35657;51.204;-4.130;2023-05-24T04:33:50;12.80;99.90
49765;DHT22;35657;51.204;-4.130;2023-05-24T04:36:17;12.70;99.90
49765;DHT22;35657;51.204;-4.130;2023-05-24T04:38:43;12.70;99.90
49765;DHT22;35657;51.204;-4.130;2023-05-24T04:41:10;12.70;99.90
49765;DHT22;35657;51.204;-4.130;2023-05-24T04:43:37;12.70;99.90
49765;DHT22;35657;51.204;-4.130;2023-05-24T04:46:03;12.60;99.90
49765;DHT22;35657;51.204;-4.130;2023-05-24T04:48:29;12.60;99.90
49765;DHT22;35657;51.204;-4.130;2023-05-24T04:50:55;12.60;99.90
49765;DHT22;35657;51.204;-4.130;2023-05-24T04:53:21;12.50;99.90
49765;DHT22;35657;51.204;-4.130;2023-05-24T04:55:48;12.50;99.90
49765;DHT22;35657;51.204;-4.130;2023-05-24T04:58:14;12.50;99.90
49765;DHT22;35657;51.204;-4.130;2023-05-24T05:00:41;12.60;99.90
49765;DHT22;35657;51.204;-4.130;2023-05-24T05:03:07;12.70;99.90
49765;DHT22;35657;51.204;-4.130;2023-05-24T05:05:33;12.70;99.90
49765;DHT22;35657;51.204;-4.130;2023-05-24T05:07:59;12.70;99.90
49765;DHT22;35657;51.204;-4.130;2023-05-24T05:10:25;12.70;99.90
49765;DHT22;35657;51.204;-4.130;2023-05-24T05:12:51;12.60;99.90
49765;DHT22;35657;51.204;-4.130;2023-05-24T05:15:16;12.60;99.90
49765;DHT22;35657;51.204;-4.130;2023-05-24T05:17:42;12.70;99.90
49765;DHT22;35657;51.204;-4.130;2023-05-24T05:20:08;12.70;99.90
49765;DHT22;35657;51.204;-4.130;2023-05-24T05:22:34;12.60;99.90
49765;DHT22;35657;51.204;-4.130;2023-05-24T05:25:00;12.50;99.90
49765;DHT22;35657;51.204;-4.130;2023-05-24T05:27:28;12.50;99.90
49765;DHT22;35657;51.204;-4.130;2023-05-24T05:29:54;12.50;99.90
49765;DHT22;35657;51.204;-4.130;2023-05-24T05:32:19;12.50;99.90
49765;DHT22;35657;51.204;-4.130;2023-05-24T05:34:45;12.60;99.90
49765;DHT22;35657;51.204;-4.130;2023-05-24T05:37:11;12.60;99.90
49765;DHT22;35657;51.204;-4.130;2023-05-24T05:39:37;12.60;99.90
49765;DHT22;35657;51.204;-4.130;2023-05-24T05:42:03;12.70;99.90
49765;DHT22;35657;51.204;-4.130;2023-05-24T05:44:28;12.90;99.90
49765;DHT22;35657;51.204;-4.130;2023-05-24T05:46:54;13.00;99.90
49765;DHT22;35657;51.204;-4.130;2023-05-24T05:49:20;13.10;99.90
49765;DHT22;35657;51.204;-4.130;2023-05-24T05:51:45;13.10;99.90
49765;DHT22;35657;51.204;-4.130;2023-05-24T05:54:11;13.20;99.90
49765;DHT22;35657;51.204;-4.130;2023-05-24T05:56:43;13.10;99.90
49765;DHT22;35657;51.204;-4.130;2023-05-24T05:59:15;13.10;99.90
49765;DHT22;35657;51.204;-4.130;2023-05-24T06:01:42;13.00;99.90
49765;DHT22;35657;51.204;-4.130;2023-05-24T06:04:08;13.00;99.90
49765;DHT22;35657;51.204;-4.130;2023-05-24T06:06:34;13.00;99.90
49765;DHT22;35657;51.204;-4.130;2023-05-24T06:09:00;13.00;99.90
49765;DHT22;35657;51.204;-4.130;2023-05-24T06:11:26;13.00;99.90
49765;DHT22;35657;51.204;-4.130;2023-05-24T06:13:52;13.00;99.90
49765;DHT22;35657;51.204;-4.130;2023-05-24T06:16:18;12.90;99.90
49765;DHT22;35657;51.204;-4.130;2023-05-24T06:18:45;12.90;99.90
49765;DHT22;35657;51.204;-4.130;2023-05-24T06:21:14;12.90;99.90
49765;DHT22;35657;51.204;-4.130;2023-05-24T06:23:41;12.90;99.90
49765;DHT22;35657;51.204;-4.130;2023-05-24T06:26:07;13.00;99.90
49765;DHT22;35657;51.204;-4.130;2023-05-24T06:28:34;13.00;99.90
49765;DHT22;35657;51.204;-4.130;2023-05-24T06:31:00;13.00;99.90
49765;DHT22;35657;51.204;-4.130;2023-05-24T06:33:26;13.00;99.90
49765;DHT22;35657;51.204;-4.130;2023-05-24T06:35:52;13.00;99.90
49765;DHT22;35657;51.204;-4.130;2023-05-24T06:38:18;13.00;99.90
49765;DHT22;35657;51.204;-4.130;2023-05-24T06:40:43;13.00;99.90
49765;DHT22;35657;51.204;-4.130;2023-05-24T06:43:09;13.00;99.90
49765;DHT22;35657;51.204;-4.130;2023-05-24T06:45:35;13.10;99.90
49765;DHT22;35657;51.204;-4.130;2023-05-24T06:48:01;13.10;99.90
49765;DHT22;35657;51.204;-4.130;2023-05-24T06:50:27;13.10;99.90
49765;DHT22;35657;51.204;-4.130;2023-05-24T06:52:53;13.10;99.90
49765;DHT22;35657;51.204;-4.130;2023-05-24T06:55:19;13.10;99.90
49765;DHT22;35657;51.204;-4.130;2023-05-24T06:57:45;13.10;99.90
49765;DHT22;35657;51.204;-4.130;2023-05-24T07:00:11;13.10;99.90
49765;DHT22;35657;51.204;-4.130;2023-05-24T07:02:39;13.10;99.90
49765;DHT22;35657;51.204;-4.130;2023-05-24T07:05:06;13.10;99.90
49765;DHT22;35657;51.204;-4.130;2023-05-24T07:07:42;13.10;99.90
49765;DHT22;35657;51.204;-4.130;2023-05-24T07:10:09;13.20;99.90
49765;DHT22;35657;51.204;-4.130;2023-05-24T07:12:39;13.20;99.90
49765;DHT22;35657;51.204;-4.130;2023-05-24T07:15:05;13.20;99.90
49765;DHT22;35657;51.204;-4.130;2023-05-24T07:17:31;13.20;99.90
49765;DHT22;35657;51.204;-4.130;2023-05-24T07:19:58;13.30;99.90
49765;DHT22;35657;51.204;-4.130;2023-05-24T07:22:24;13.30;99.90
49765;DHT22;35657;51.204;-4.130;2023-05-24T07:24:53;13.30;99.90
49765;DHT22;35657;51.204;-4.130;2023-05-24T07:27:18;13.30;99.90
49765;DHT22;35657;51.204;-4.130;2023-05-24T07:29:44;13.40;99.90
49765;DHT22;35657;51.204;-4.130;2023-05-24T07:32:10;13.50;99.90
49765;DHT22;35657;51.204;-4.130;2023-05-24T07:34:36;13.60;99.90
49765;DHT22;35657;51.204;-4.130;2023-05-24T07:37:04;13.60;99.90
49765;DHT22;35657;51.204;-4.130;2023-05-24T07:39:29;13.70;99.90
49765;DHT22;35657;51.204;-4.130;2023-05-24T07:41:55;13.80;99.90
49765;DHT22;35657;51.204;-4.130;2023-05-24T07:44:21;13.90;99.90
49765;DHT22;35657;51.204;-4.130;2023-05-24T07:46:48;14.00;99.90
49765;DHT22;35657;51.204;-4.130;2023-05-24T07:49:14;14.10;99.90
49765;DHT22;35657;51.204;-4.130;2023-05-24T07:51:40;14.10;99.90
49765;DHT22;35657;51.204;-4.130;2023-05-24T07:54:05;14.20;99.90
49765;DHT22;35657;51.204;-4.130;2023-05-24T07:56:31;14.30;99.90
49765;DHT22;35657;51.204;-4.130;2023-05-24T07:58:57;14.30;99.90
49765;DHT22;35657;51.204;-4.130;2023-05-24T08:01:33;14.30;99.90
49765;DHT22;35657;51.204;-4.130;2023-05-24T08:04:00;14.40;99.90
49765;DHT22;35657;51.204;-4.130;2023-05-24T08:06:27;14.50;99.90
49765;DHT22;35657;51.204;-4.130;2023-05-24T08:08:52;14.50;99.90
49765;DHT22;35657;51.204;-4.130;2023-05-24T08:11:19;14.60;99.90
49765;DHT22;35657;51.204;-4.130;2023-05-24T08:13:45;14.70;99.90
49765;DHT22;35657;51.204;-4.130;2023-05-24T08:16:10;14.60;99.90
49765;DHT22;35657;51.204;-4.130;2023-05-24T08:18:36;14.70;99.90
49765;DHT22;35657;51.204;-4.130;2023-05-24T08:21:02;14.90;99.90
49765;DHT22;35657;51.204;-4.130;2023-05-24T08:23:27;14.90;99.90
49765;DHT22;35657;51.204;-4.130;2023-05-24T08:25:56;15.10;99.90
49765;DHT22;35657;51.204;-4.130;2023-05-24T08:28:23;15.30;99.90
49765;DHT22;35657;51.204;-4.130;2023-05-24T08:30:48;15.30;99.90
49765;DHT22;35657;51.204;-4.130;2023-05-24T08:33:14;15.50;99.90
49765;DHT22;35657;51.204;-4.130;2023-05-24T08:35:40;15.40;99.90
49765;DHT22;35657;51.204;-4.130;2023-05-24T08:38:06;15.40;99.90
49765;DHT22;35657;51.204;-4.130;2023-05-24T08:40:32;15.80;99.90
49765;DHT22;35657;51.204;-4.130;2023-05-24T08:42:59;16.10;99.90
49765;DHT22;35657;51.204;-4.130;2023-05-24T08:45:29;16.20;99.90
49765;DHT22;35657;51.204;-4.130;2023-05-24T08:47:56;16.30;99.90
49765;DHT22;35657;51.204;-4.130;2023-05-24T08:50:23;16.00;99.90
49765;DHT22;35657;51.204;-4.130;2023-05-24T08:52:50;15.90;99.90
49765;DHT22;35657;51.204;-4.130;2023-05-24T08:55:16;15.80;99.90
49765;DHT22;35657;51.204;-4.130;2023-05-24T08:57:44;16.30;99.90
49765;DHT22;35657;51.204;-4.130;2023-05-24T09:00:11;16.30;99.90
49765;DHT22;35657;51.204;-4.130;2023-05-24T09:02:41;16.20;99.90
49765;DHT22;35657;51.204;-4.130;2023-05-24T09:05:10;16.20;99.90
49765;DHT22;35657;51.204;-4.130;2023-05-24T09:07:36;16.30;99.90
49765;DHT22;35657;51.204;-4.130;2023-05-24T09:10:07;16.60;99.90
49765;DHT22;35657;51.204;-4.130;2023-05-24T09:12:34;16.90;99.90
49765;DHT22;35657;51.204;-4.130;2023-05-24T09:15:01;16.70;99.90
49765;DHT22;35657;51.204;-4.130;2023-05-24T09:17:29;16.60;99.90
49765;DHT22;35657;51.204;-4.130;2023-05-24T09:19:56;16.60;99.90
49765;DHT22;35657;51.204;-4.130;2023-05-24T09:22:25;16.80;99.90
49765;DHT22;35657;51.204;-4.130;2023-05-24T09:24:52;16.90;99.90
49765;DHT22;35657;51.204;-4.130;2023-05-24T09:27:22;16.80;99.90
49765;DHT22;35657;51.204;-4.130;2023-05-24T09:29:49;16.90;99.90
49765;DHT22;35657;51.204;-4.130;2023-05-24T09:32:17;17.00;99.90
49765;DHT22;35657;51.204;-4.130;2023-05-24T09:34:44;17.10;99.90
49765;DHT22;35657;51.204;-4.130;2023-05-24T09:37:18;17.30;99.90
49765;DHT22;35657;51.204;-4.130;2023-05-24T09:39:45;17.40;99.90
49765;DHT22;35657;51.204;-4.130;2023-05-24T09:42:17;17.20;99.90
49765;DHT22;35657;51.204;-4.130;2023-05-24T09:44:47;17.10;99.90
49765;DHT22;35657;51.204;-4.130;2023-05-24T09:47:13;17.00;99.90
49765;DHT22;35657;51.204;-4.130;2023-05-24T09:49:40;17.10;99.90
49765;DHT22;35657;51.204;-4.130;2023-05-24T09:52:06;17.20;99.90
49765;DHT22;35657;51.204;-4.130;2023-05-24T09:54:32;17.30;99.90
49765;DHT22;35657;51.204;-4.130;2023-05-24T09:57:01;17.80;99.90
49765;DHT22;35657;51.204;-4.130;2023-05-24T09:59:32;17.90;99.90
49765;DHT22;35657;51.204;-4.130;2023-05-24T10:02:11;17.70;99.90
49765;DHT22;35657;51.204;-4.130;2023-05-24T10:04:40;17.80;99.90
49765;DHT22;35657;51.204;-4.130;2023-05-24T10:07:06;18.30;99.90
49765;DHT22;35657;51.204;-4.130;2023-05-24T10:09:33;18.50;99.90
49765;DHT22;35657;51.204;-4.130;2023-05-24T10:12:04;18.70;99.90
49765;DHT22;35657;51.204;-4.130;2023-05-24T10:14:32;18.80;99.90
49765;DHT22;35657;51.204;-4.130;2023-05-24T10:16:59;19.10;99.90
49765;DHT22;35657;51.204;-4.130;2023-05-24T10:19:24;19.50;99.90
49765;DHT22;35657;51.204;-4.130;2023-05-24T10:21:51;19.80;99.90
49765;DHT22;35657;51.204;-4.130;2023-05-24T10:24:18;20.00;99.90
49765;DHT22;35657;51.204;-4.130;2023-05-24T10:26:48;20.10;99.90
49765;DHT22;35657;51.204;-4.130;2023-05-24T10:29:23;19.80;99.90
49765;DHT22;35657;51.204;-4.130;2023-05-24T10:31:52;19.70;99.90
49765;DHT22;35657;51.204;-4.130;2023-05-24T10:34:19;19.80;99.90
49765;DHT22;35657;51.204;-4.130;2023-05-24T10:36:45;19.60;99.90
49765;DHT22;35657;51.204;-4.130;2023-05-24T10:39:11;19.50;99.90
49765;DHT22;35657;51.204;-4.130;2023-05-24T10:41:40;20.20;99.90
49765;DHT22;35657;51.204;-4.130;2023-05-24T10:44:10;20.30;99.90
49765;DHT22;35657;51.204;-4.130;2023-05-24T10:47:00;20.60;99.90
49765;DHT22;35657;51.204;-4.130;2023-05-24T10:49:26;19.40;99.90
49765;DHT22;35657;51.204;-4.130;2023-05-24T10:51:59;19.70;99.90
49765;DHT22;35657;51.204;-4.130;2023-05-24T10:54:25;19.90;99.90
49765;DHT22;35657;51.204;-4.130;2023-05-24T10:56:51;19.70;99.90
49765;DHT22;35657;51.204;-4.130;2023-05-24T11:01:56;20.00;99.90
49765;DHT22;35657;51.204;-4.130;2023-05-24T11:04:22;20.60;99.90
49765;DHT22;35657;51.204;-4.130;2023-05-24T11:07:01;20.20;99.90
49765;DHT22;35657;51.204;-4.130;2023-05-24T11:09:28;19.30;99.90
49765;DHT22;35657;51.204;-4.130;2023-05-24T11:11:57;19.70;99.90
49765;DHT22;35657;51.204;-4.130;2023-05-24T11:14:28;20.70;99.90
49765;DHT22;35657;51.204;-4.130;2023-05-24T11:16:54;20.80;99.90
49765;DHT22;35657;51.204;-4.130;2023-05-24T11:19:21;21.30;99.90
49765;DHT22;35657;51.204;-4.130;2023-05-24T11:21:51;20.70;99.90
49765;DHT22;35657;51.204;-4.130;2023-05-24T11:24:18;20.20;99.90
49765;DHT22;35657;51.204;-4.130;2023-05-24T11:26:45;20.90;99.90
49765;DHT22;35657;51.204;-4.130;2023-05-24T11:29:14;21.20;99.90
49765;DHT22;35657;51.204;-4.130;2023-05-24T11:31:51;21.20;99.90
49765;DHT22;35657;51.204;-4.130;2023-05-24T11:34:19;21.30;99.90
49765;DHT22;35657;51.204;-4.130;2023-05-24T11:36:45;21.90;99.90
49765;DHT22;35657;51.204;-4.130;2023-05-24T11:39:15;22.00;99.90
49765;DHT22;35657;51.204;-4.130;2023-05-24T11:41:41;22.50;99.90
49765;DHT22;35657;51.204;-4.130;2023-05-24T11:44:08;22.50;99.90
49765;DHT22;35657;51.204;-4.130;2023-05-24T11:46:34;22.10;99.90
49765;DHT22;35657;51.204;-4.130;2023-05-24T11:49:00;22.00;99.90
49765;DHT22;35657;51.204;-4.130;2023-05-24T11:51:28;22.30;99.90
49765;DHT22;35657;51.204;-4.130;2023-05-24T11:53:55;22.20;99.90
49765;DHT22;35657;51.204;-4.130;2023-05-24T11:56:21;22.10;99.90
49765;DHT22;35657;51.204;-4.130;2023-05-24T11:58:48;21.60;99.90
49765;DHT22;35657;51.204;-4.130;2023-05-24T12:01:25;20.60;99.90
49765;DHT22;35657;51.204;-4.130;2023-05-24T12:03:52;21.60;99.90
49765;DHT22;35657;51.204;-4.130;2023-05-24T12:06:18;21.80;99.90
49765;DHT22;35657;51.204;-4.130;2023-05-24T12:08:45;21.90;99.90
49765;DHT22;35657;51.204;-4.130;2023-05-24T12:11:11;21.80;99.90
49765;DHT22;35657;51.204;-4.130;2023-05-24T12:13:38;22.00;99.90
49765;DHT22;35657;51.204;-4.130;2023-05-24T12:16:05;22.10;99.90
49765;DHT22;35657;51.204;-4.130;2023-05-24T12:18:30;22.10;99.90
49765;DHT22;35657;51.204;-4.130;2023-05-24T12:20:56;22.10;99.90
49765;DHT22;35657;51.204;-4.130;2023-05-24T12:23:23;22.00;99.90
49765;DHT22;35657;51.204;-4.130;2023-05-24T12:25:50;21.80;99.90
49765;DHT22;35657;51.204;-4.130;2023-05-24T12:28:19;21.80;99.90
49765;DHT22;35657;51.204;-4.130;2023-05-24T12:30:48;21.80;99.90
49765;DHT22;35657;51.204;-4.130;2023-05-24T12:33:14;21.30;99.90
49765;DHT22;35657;51.204;-4.130;2023-05-24T12:35:40;21.50;99.90
49765;DHT22;35657;51.204;-4.130;2023-05-24T12:38:10;21.10;99.90
49765;DHT22;35657;51.204;-4.130;2023-05-24T12:40:35;21.50;99.90
49765;DHT22;35657;51.204;-4.130;2023-05-24T12:43:03;21.20;99.90
49765;DHT22;35657;51.204;-4.130;2023-05-24T12:45:29;21.20;99.90
49765;DHT22;35657;51.204;-4.130;2023-05-24T12:47:58;21.20;99.90
49765;DHT22;35657;51.204;-4.130;2023-05-24T12:50:27;21.20;99.90
49765;DHT22;35657;51.204;-4.130;2023-05-24T12:52:53;20.10;99.90
49765;DHT22;35657;51.204;-4.130;2023-05-24T12:55:23;19.10;99.90
49765;DHT22;35657;51.204;-4.130;2023-05-24T12:57:51;19.80;99.90
49765;DHT22;35657;51.204;-4.130;2023-05-24T13:00:24;19.10;99.90
49765;DHT22;35657;51.204;-4.130;2023-05-24T13:02:51;19.20;99.90
49765;DHT22;35657;51.204;-4.130;2023-05-24T13:05:20;19.10;99.90
49765;DHT22;35657;51.204;-4.130;2023-05-24T13:07:46;19.00;99.90
49765;DHT22;35657;51.204;-4.130;2023-05-24T13:10:12;19.10;99.90
49765;DHT22;35657;51.204;-4.130;2023-05-24T13:12:38;19.60;99.90
49765;DHT22;35657;51.204;-4.130;2023-05-24T13:15:06;19.60;99.90
49765;DHT22;35657;51.204;-4.130;2023-05-24T13:17:33;19.50;99.90
49765;DHT22;35657;51.204;-4.130;2023-05-24T13:20:02;19.60;99.90
49765;DHT22;35657;51.204;-4.130;2023-05-24T13:22:30;19.70;99.90
49765;DHT22;35657;51.204;-4.130;2023-05-24T13:24:56;20.10;99.90
49765;DHT22;35657;51.204;-4.130;2023-05-24T13:27:22;20.40;99.90
49765;DHT22;35657;51.204;-4.130;2023-05-24T13:29:48;20.40;99.90
49765;DHT22;35657;51.204;-4.130;2023-05-24T13:32:14;20.70;99.90
49765;DHT22;35657;51.204;-4.130;2023-05-24T13:34:40;20.80;99.90
49765;DHT22;35657;51.204;-4.130;2023-05-24T13:37:06;20.40;99.90
49765;DHT22;35657;51.204;-4.130;2023-05-24T13:39:32;20.00;99.90
49765;DHT22;35657;51.204;-4.130;2023-05-24T13:42:00;20.20;99.90
49765;DHT22;35657;51.204;-4.130;2023-05-24T13:44:26;20.40;99.90
49765;DHT22;35657;51.204;-4.130;2023-05-24T13:46:52;19.90;99.90
49765;DHT22;35657;51.204;-4.130;2023-05-24T13:49:18;19.70;99.90
49765;DHT22;35657;51.204;-4.130;2023-05-24T13:51:44;19.50;99.90
49765;DHT22;35657;51.204;-4.130;2023-05-24T13:54:11;19.40;99.90
49765;DHT22;35657;51.204;-4.130;2023-05-24T13:56:37;19.70;99.90
49765;DHT22;35657;51.204;-4.130;2023-05-24T13:59:04;20.10;99.90
49765;DHT22;35657;51.204;-4.130;2023-05-24T14:01:31;19.60;99.90
49765;DHT22;35657;51.204;-4.130;2023-05-24T14:03:57;19.40;99.90
49765;DHT22;35657;51.204;-4.130;2023-05-24T14:06:23;19.40;99.90
49765;DHT22;35657;51.204;-4.130;2023-05-24T14:08:49;19.40;99.90
49765;DHT22;35657;51.204;-4.130;2023-05-24T14:11:15;19.80;99.90
49765;DHT22;35657;51.204;-4.130;2023-05-24T14:13:41;19.70;99.90
49765;DHT22;35657;51.204;-4.130;2023-05-24T14:16:07;20.00;99.90
49765;DHT22;35657;51.204;-4.130;2023-05-24T14:18:33;20.10;99.90
49765;DHT22;35657;51.204;-4.130;2023-05-24T14:20:59;20.30;99.90
49765;DHT22;35657;51.204;-4.130;2023-05-24T14:23:25;19.90;99.90
49765;DHT22;35657;51.204;-4.130;2023-05-24T14:25:52;19.90;99.90
49765;DHT22;35657;51.204;-4.130;2023-05-24T14:28:18;20.20;99.90
49765;DHT22;35657;51.204;-4.130;2023-05-24T14:30:44;20.30;99.90
49765;DHT22;35657;51.204;-4.130;2023-05-24T14:33:09;20.20;99.90
49765;DHT22;35657;51.204;-4.130;2023-05-24T14:35:38;20.30;99.90
49765;DHT22;35657;51.204;-4.130;2023-05-24T14:38:08;20.20;99.90
49765;DHT22;35657;51.204;-4.130;2023-05-24T14:40:35;20.20;99.90
49765;DHT22;35657;51.204;-4.130;2023-05-24T14:43:03;19.80;99.90
49765;DHT22;35657;51.204;-4.130;2023-05-24T14:45:28;19.50;99.90
49765;DHT22;35657;51.204;-4.130;2023-05-24T14:47:54;20.00;99.90
49765;DHT22;35657;51.204;-4.130;2023-05-24T14:50:21;20.10;99.90
49765;DHT22;35657;51.204;-4.130;2023-05-24T14:52:47;20.20;99.90
49765;DHT22;35657;51.204;-4.130;2023-05-24T14:55:13;19.80;99.90
49765;DHT22;35657;51.204;-4.130;2023-05-24T14:57:39;19.80;99.90
49765;DHT22;35657;51.204;-4.130;2023-05-24T15:00:06;20.40;99.90
49765;DHT22;35657;51.204;-4.130;2023-05-24T15:02:32;20.50;99.90
49765;DHT22;35657;51.204;-4.130;2023-05-24T15:04:59;20.40;99.90
49765;DHT22;35657;51.204;-4.130;2023-05-24T15:07:24;20.40;99.90
49765;DHT22;35657;51.204;-4.130;2023-05-24T15:09:50;20.50;99.90
49765;DHT22;35657;51.204;-4.130;2023-05-24T15:12:16;20.70;99.90
49765;DHT22;35657;51.204;-4.130;2023-05-24T15:14:42;20.90;99.90
49765;DHT22;35657;51.204;-4.130;2023-05-24T15:17:09;20.60;99.90
49765;DHT22;35657;51.204;-4.130;2023-05-24T15:19:35;20.10;99.90
49765;DHT22;35657;51.204;-4.130;2023-05-24T15:22:01;20.50;99.90
49765;DHT22;35657;51.204;-4.130;2023-05-24T15:24:26;20.80;99.90
49765;DHT22;35657;51.204;-4.130;2023-05-24T15:26:52;20.80;99.90
49765;DHT22;35657;51.204;-4.130;2023-05-24T15:29:18;20.70;99.90